Terminal Aerodrome Forecast
Issued by NWS

Home | Current Version | Previous Version | Text Only | Print | Product List | Glossary On
Versions: 1 2 3 4 5 6 7 8 9 10 11 12
000
FTUS45 KLKN 182005 AAA
TAFTPH
TAF AMD
KTPH 182005Z 1820/1918 19010G20KT P6SM SKC
     FM182100 25030G40KT P6SM FEW200
     FM190100 32038G48KT P6SM SCT100=

USA.gov is the U.S. government's official web portal to all federal, state and local government web resources and services.